Fairbanks, AK

3:44 AM AKDT on April 27, 2015 (GMT -0800)
Fairbanks International | | Change Station
CLOSE
Current Station
Airport
Location: Fairbanks,
Elevation: 433 ft
Nearby Weather Stations

Elev 433 ft 64.80 °N, 147.88 °W | Updated 51 minutes ago

Mostly Cloudy
Mostly Cloudy
45 °F
Feels Like 41 °F
N
8
Wind Variable Wind from North

Today
High -- | Low -- °F
--% Chance of Precip.
Yesterday
High -- | Low -- °F
Precip. -- in
5:33 AM 10:07 PM
Waxing Gibbous, 64% visible
Pressure 29.60 in
Visibility 10.0 miles
Clouds Scattered Clouds 5000 ft
Mostly Cloudy 10000 ft
Windchill 41 °F
Dew Point 26 °F
Humidity 48%
Rainfall 0.00 in
Snow Depth Not available.
UV 0 out of 12
Pollen Not available.
Air Quality Not available.
Flu Activity Sporadic
METAR PAFA 271053Z 36007KT 10SM SCT050 BKN100 07/M03 A2958 RMK AO2 SLP022 T00721033

More Conditions Fewer Conditions

Pressure 29.60 in
Visibility 10.0 miles
Clouds Scattered Clouds 5000 ft
Mostly Cloudy 10000 ft
Windchill 41 °F
Dew Point 26 °F
Humidity 48%
Rainfall 0.00 in
Snow Depth Not available.
UV 0 out of 12
Pollen Not available.
Air Quality Not available.
Flu Activity Sporadic
METAR PAFA 271053Z 36007KT 10SM SCT050 BKN100 07/M03 A2958 RMK AO2 SLP022 T00721033

More Conditions Fewer Conditions

10-Day Weather Forecast

Almanac

Astronomy

Apr. 27, 2015 Rise Set
Actual Time
Civil Twilight
Nautical Twilight
Astronomical Twilight
Moon
Length of Visible Light
Length of Day
Tomorrow will be .
, % of the Moon is Illuminated

Today's Extremes

State Highs State Lows

Community

WunderPhotos

Upload Photos

1,817,283 photos uploaded!

WunderBlogs® & News

Nearby

Air Quality

  Air Quality AQ Index Pollutant
Not available.

Snow Depth

Station Depth Elevation

Earthquake Activity

City Distance Mag. Time & Date
Minimum magnitude displayed is 2.5.

Coastal Water Temperatures

Place Temperature

Stations

Nearby Weather Stations

Station Location Temp. Windchill Dew Point Humidity Wind Precip. Elev Updated Type